createdAt,value
2018-04-13T00:04:18.439Z,23.60
2018-04-13T00:09:13.573Z,25.17
2018-04-13T00:14:08.699Z,29.53
2018-04-13T00:19:03.820Z,28.13
2018-04-13T00:23:58.186Z,28.67
2018-04-13T00:28:52.557Z,28.03
2018-04-13T00:33:46.899Z,29.53
2018-04-13T00:38:41.264Z,29.20
2018-04-13T00:43:35.652Z,27.97
2018-04-13T00:48:30.006Z,28.53
2018-04-13T00:53:30.461Z,28.80
2018-04-13T00:58:25.640Z,30.70
2018-04-13T01:03:20.028Z,32.10
2018-04-13T01:08:14.389Z,30.60
2018-04-13T01:13:09.521Z,31.30
2018-04-13T01:18:04.638Z,32.77
2018-04-13T01:22:59.814Z,33.03
2018-04-13T01:27:54.172Z,33.30
2018-04-13T01:32:48.715Z,32.47
2018-04-13T01:37:43.058Z,30.13
2018-04-13T01:42:38.179Z,33.07
2018-04-13T01:47:33.300Z,32.40
2018-04-13T01:52:28.598Z,34.47
2018-04-13T01:57:22.969Z,32.63
2018-04-13T02:02:17.332Z,32.67
2018-04-13T02:07:12.455Z,34.10
2018-04-13T02:12:07.581Z,33.13
2018-04-13T02:17:02.476Z,40.30
2018-04-13T02:21:56.861Z,38.57
2018-04-13T02:26:51.236Z,37.03
2018-04-13T02:31:45.620Z,36.80
2018-04-13T02:36:39.977Z,36.97
2018-04-13T02:41:34.086Z,37.87
2018-04-13T02:46:29.360Z,36.50
2018-04-13T02:51:23.722Z,37.93
2018-04-13T02:56:18.916Z,36.97
2018-04-13T03:01:13.297Z,38.97
2018-04-13T03:06:07.658Z,39.60
2018-04-13T03:11:01.881Z,37.67
2018-04-13T03:15:56.021Z,37.50
2018-04-13T03:20:51.871Z,38.40
2018-04-13T03:25:46.222Z,36.90
2018-04-13T03:30:40.595Z,38.67
2018-04-13T03:35:35.701Z,40.43
2018-04-13T03:40:30.837Z,40.43
2018-04-13T03:45:25.255Z,40.20
2018-04-13T03:50:19.621Z,40.17
2018-04-13T03:55:14.834Z,40.07
2018-04-13T04:00:09.196Z,40.77
2018-04-13T04:05:03.542Z,37.97
2018-04-13T04:09:58.664Z,36.17
2018-04-13T04:14:53.025Z,35.03
2018-04-13T04:20:04.726Z,32.50
2018-04-13T04:25:16.179Z,31.77
2018-04-13T04:30:10.533Z,29.17
2018-04-13T04:35:04.882Z,28.17
2018-04-13T04:40:00.867Z,27.67
2018-04-13T04:44:55.295Z,27.27
2018-04-13T04:49:49.649Z,27.37
2018-04-13T04:54:44.778Z,32.73
2018-04-13T04:59:39.184Z,26.87
2018-04-13T05:04:33.645Z,26.07
2018-04-13T05:09:28.079Z,26.97
2018-04-13T05:14:23.198Z,27.60
2018-04-13T05:19:17.757Z,28.37
2018-04-13T05:24:12.106Z,27.67
2018-04-13T05:29:07.260Z,30.57
2018-04-13T05:34:01.626Z,28.60
2018-04-13T05:38:56.755Z,26.13
2018-04-13T05:43:51.904Z,26.10
2018-04-13T05:48:46.265Z,27.00
2018-04-13T05:53:41.417Z,26.47
2018-04-13T05:58:35.916Z,25.07
2018-04-13T06:03:30.311Z,21.97
2018-04-13T06:08:25.512Z,21.23
2018-04-13T06:13:20.702Z,21.20
2018-04-13T06:18:15.152Z,21.83
2018-04-13T06:23:09.613Z,22.20
2018-04-13T06:28:03.984Z,21.83
2018-04-13T06:32:58.444Z,20.47
2018-04-13T06:37:53.069Z,21.13
2018-04-13T06:42:47.926Z,18.37
2018-04-13T06:47:42.404Z,16.80
2018-04-13T06:52:37.736Z,17.83
2018-04-13T06:57:32.892Z,18.97
2018-04-13T07:02:27.089Z,16.97
2018-04-13T07:07:21.748Z,18.90
2018-04-13T07:12:16.149Z,16.53
2018-04-13T07:17:12.003Z,23.30
2018-04-13T07:22:07.128Z,16.63
2018-04-13T07:27:02.374Z,15.13
2018-04-13T07:31:57.496Z,16.00
2018-04-13T07:36:51.947Z,15.97
2018-04-13T07:41:46.435Z,15.80
2018-04-13T07:46:40.822Z,22.70
2018-04-13T07:51:35.189Z,19.53
2018-04-13T07:56:30.342Z,19.70
2018-04-13T08:01:24.714Z,21.20
2018-04-13T08:06:19.870Z,21.77
2018-04-13T08:11:14.249Z,24.07
2018-04-13T08:16:08.612Z,25.53
2018-04-13T08:21:03.053Z,24.33
2018-04-13T08:25:57.504Z,26.70
2018-04-13T08:30:51.887Z,29.20
2018-04-13T08:35:46.343Z,31.40
2018-04-13T08:40:42.398Z,35.37
2018-04-13T08:45:37.595Z,38.90
2018-04-13T08:50:32.200Z,35.70
2018-04-13T08:55:27.022Z,38.10
2018-04-13T09:00:21.393Z,41.87
2018-04-13T09:05:15.763Z,40.87
2018-04-13T09:10:10.232Z,35.77
2018-04-13T09:15:04.609Z,28.50
2018-04-13T09:19:58.988Z,27.57
2018-04-13T09:24:53.510Z,28.00
2018-04-13T09:29:48.004Z,28.40
2018-04-13T09:34:42.737Z,30.40
2018-04-13T09:39:37.114Z,27.43
2018-04-13T09:44:31.491Z,20.53
2018-04-13T09:49:25.864Z,20.27
2018-04-13T09:54:20.383Z,20.83
2018-04-13T09:59:15.536Z,20.73
2018-04-13T10:04:13.768Z,21.17
2018-04-13T10:09:08.941Z,19.50
2018-04-13T10:14:03.435Z,16.40
2018-04-13T10:18:58.587Z,13.17
2018-04-13T10:23:53.133Z,10.40
2018-04-13T10:28:47.509Z,9.87
2018-04-13T10:33:41.885Z,10.53
2018-04-13T10:38:37.352Z,9.23
2018-04-13T10:43:31.505Z,10.90
2018-04-13T10:48:25.623Z,7.53
2018-04-13T10:53:20.917Z,7.90
2018-04-13T10:58:15.322Z,7.87
2018-04-13T11:03:10.472Z,7.10
2018-04-13T11:08:05.903Z,7.00
2018-04-13T11:13:00.261Z,8.73
2018-04-13T11:17:55.391Z,6.97
2018-04-13T11:22:50.775Z,6.93
2018-04-13T11:27:45.718Z,7.70
2018-04-13T11:32:41.105Z,6.60
2018-04-13T11:37:35.570Z,6.77
2018-04-13T11:42:29.942Z,6.37
2018-04-13T11:47:24.298Z,5.27
2018-04-13T11:52:18.806Z,5.80
2018-04-13T11:57:13.294Z,5.20
2018-04-13T12:02:07.477Z,5.20
2018-04-13T12:07:02.369Z,5.47
2018-04-13T12:11:56.755Z,4.93
2018-04-13T12:16:51.180Z,3.93
2018-04-13T12:21:46.552Z,3.00
2018-04-13T12:26:41.047Z,2.50
2018-04-13T12:31:35.181Z,3.17
2018-04-13T12:36:29.615Z,3.03
2018-04-13T12:41:24.753Z,3.03
2018-04-13T12:46:19.881Z,2.97
2018-04-13T12:51:14.248Z,2.80
2018-04-13T12:56:08.680Z,3.37
2018-04-13T13:01:03.153Z,3.30
2018-04-13T13:05:57.665Z,3.47
2018-04-13T13:10:52.050Z,3.20
2018-04-13T13:15:46.600Z,3.20
2018-04-13T13:20:41.485Z,3.13
2018-04-13T13:25:35.848Z,3.10
2018-04-13T13:30:30.205Z,3.70
2018-04-13T13:35:25.365Z,3.30
2018-04-13T13:40:19.711Z,2.97
2018-04-13T13:45:14.847Z,3.30
2018-04-13T13:50:09.976Z,3.73
2018-04-13T13:55:05.110Z,3.77
2018-04-13T13:59:59.541Z,3.77
2018-04-13T14:04:53.940Z,3.70
2018-04-13T14:09:48.369Z,4.03
2018-04-13T14:14:42.738Z,3.40
2018-04-13T14:19:38.831Z,3.97
2018-04-13T14:24:33.397Z,3.63
2018-04-13T14:29:27.771Z,3.63
2018-04-13T14:34:22.178Z,4.40
2018-04-13T14:39:16.521Z,4.37
2018-04-13T14:44:11.159Z,4.77
2018-04-13T14:49:05.698Z,4.43
2018-04-13T14:54:02.309Z,4.13
2018-04-13T14:58:57.926Z,3.70
2018-04-13T15:03:52.410Z,3.33
2018-04-13T15:08:46.771Z,3.30
2018-04-13T15:13:41.910Z,3.10
2018-04-13T15:18:37.315Z,3.50
2018-04-13T15:23:32.178Z,3.10
2018-04-13T15:28:27.020Z,3.90
2018-04-13T15:33:21.421Z,3.53
2018-04-13T15:38:15.826Z,4.07
2018-04-13T15:43:10.212Z,3.97
2018-04-13T15:48:04.907Z,4.77
2018-04-13T15:52:59.259Z,4.47
2018-04-13T15:57:54.436Z,5.13
2018-04-13T16:02:48.787Z,4.73
2018-04-13T16:07:43.999Z,4.90
2018-04-13T16:12:38.391Z,5.10
2018-04-13T16:17:33.039Z,4.87
2018-04-13T16:22:27.430Z,6.60
2018-04-13T16:27:22.925Z,8.10
2018-04-13T16:32:17.548Z,5.40
2018-04-13T16:37:11.891Z,4.90
2018-04-13T16:42:06.438Z,5.03
2018-04-13T16:47:00.888Z,5.20
2018-04-13T16:51:55.255Z,5.20
2018-04-13T16:56:49.850Z,5.63
2018-04-13T17:01:44.230Z,5.83
2018-04-13T17:06:38.971Z,5.87
2018-04-13T17:11:33.349Z,6.57
2018-04-13T17:16:27.830Z,6.00
2018-04-13T17:32:15.649Z,6.60
2018-04-13T17:48:13.265Z,7.13
2018-04-13T17:53:17.304Z,7.70
2018-04-13T17:58:11.866Z,7.80
2018-04-13T18:03:06.266Z,7.60
2018-04-13T18:08:00.656Z,8.40
2018-04-13T18:13:02.671Z,8.50
2018-04-13T18:17:57.929Z,7.90
2018-04-13T18:22:52.463Z,8.47
2018-04-13T18:27:50.782Z,9.17
2018-04-13T18:32:45.604Z,8.50
2018-04-13T18:37:41.444Z,6.93
2018-04-13T18:42:36.235Z,7.77
2018-04-13T18:47:32.448Z,8.70
2018-04-13T18:52:27.729Z,8.33
2018-04-13T18:57:22.274Z,8.23
2018-04-13T19:02:17.475Z,8.33
2018-04-13T19:07:11.839Z,7.90
2018-04-13T19:12:06.209Z,8.63
2018-04-13T19:17:00.676Z,9.37
2018-04-13T19:21:55.067Z,9.20
2018-04-13T19:26:49.469Z,9.57
2018-04-13T19:31:43.835Z,9.80
2018-04-13T19:36:38.966Z,8.97
2018-04-13T19:41:33.325Z,9.03
2018-04-13T19:46:27.971Z,9.60
2018-04-13T19:51:23.609Z,10.90
2018-04-13T19:56:18.208Z,9.97
2018-04-13T20:01:13.929Z,10.43
2018-04-13T20:06:09.154Z,10.97
2018-04-13T20:11:04.567Z,11.47
2018-04-13T20:15:59.146Z,11.87
2018-04-13T20:20:53.553Z,13.03
2018-04-13T20:25:48.150Z,13.60
2018-04-13T20:30:42.582Z,12.37
2018-04-13T20:35:38.287Z,13.10
2018-04-13T20:40:32.687Z,12.60
2018-04-13T20:45:27.131Z,12.73
2018-04-13T20:50:21.538Z,13.17
2018-04-13T20:55:16.691Z,11.43
2018-04-13T21:00:10.874Z,12.50
2018-04-13T21:05:06.121Z,13.37
2018-04-13T21:10:00.655Z,12.93
2018-04-13T21:14:55.085Z,12.03
2018-04-13T21:19:49.501Z,13.13
2018-04-13T21:24:44.168Z,12.83
2018-04-13T21:29:38.857Z,11.03
2018-04-13T21:34:33.290Z,10.50
2018-04-13T21:39:27.697Z,10.53
2018-04-13T21:44:22.176Z,9.97
2018-04-13T21:49:16.572Z,8.13
2018-04-13T21:54:11.321Z,7.70
2018-04-13T21:59:05.926Z,7.20
2018-04-13T22:04:00.324Z,8.43
2018-04-13T22:08:54.731Z,8.10
2018-04-13T22:13:49.402Z,7.30
2018-04-13T22:18:43.981Z,6.97
2018-04-13T22:23:39.114Z,6.83
2018-04-13T22:28:34.481Z,6.53
2018-04-13T22:33:28.875Z,6.10
2018-04-13T22:38:23.217Z,6.77
2018-04-13T22:43:17.650Z,6.70
2018-04-13T22:48:12.916Z,6.77
2018-04-13T22:53:07.427Z,7.30
2018-04-13T22:58:02.099Z,7.00
2018-04-13T23:02:56.598Z,7.23
2018-04-13T23:07:51.068Z,6.83
2018-04-13T23:12:46.685Z,6.80
2018-04-13T23:17:41.259Z,7.00
2018-04-13T23:22:39.180Z,6.87
2018-04-13T23:27:33.571Z,6.20
2018-04-13T23:32:28.350Z,6.93
2018-04-13T23:37:22.876Z,7.03
2018-04-13T23:42:17.479Z,7.53
2018-04-13T23:47:11.936Z,6.77
2018-04-13T23:52:06.293Z,7.37
2018-04-13T23:57:00.723Z,7.50
